sensor_id;sensor_type;location;lat;lon;timestamp;temperature;humidity
5940;DHT22;2995;-31.998;115.906;2024-03-08T00:00:57;29.40;99.90
5940;DHT22;2995;-31.998;115.906;2024-03-08T00:03:31;29.30;99.90
5940;DHT22;2995;-31.998;115.906;2024-03-08T00:06:02;29.20;99.90
5940;DHT22;2995;-31.998;115.906;2024-03-08T00:08:34;29.20;99.90
5940;DHT22;2995;-31.998;115.906;2024-03-08T00:11:06;29.20;99.90
5940;DHT22;2995;-31.998;115.906;2024-03-08T00:13:38;29.00;99.90
5940;DHT22;2995;-31.998;115.906;2024-03-08T00:16:09;28.90;99.90
5940;DHT22;2995;-31.998;115.906;2024-03-08T00:18:43;28.90;99.90
5940;DHT22;2995;-31.998;115.906;2024-03-08T00:21:14;28.80;99.90
5940;DHT22;2995;-31.998;115.906;2024-03-08T00:23:45;28.60;99.90
5940;DHT22;2995;-31.998;115.906;2024-03-08T00:26:17;28.60;99.90
5940;DHT22;2995;-31.998;115.906;2024-03-08T00:28:49;28.50;99.90
5940;DHT22;2995;-31.998;115.906;2024-03-08T00:31:20;28.50;99.90
5940;DHT22;2995;-31.998;115.906;2024-03-08T00:33:54;28.50;99.90
5940;DHT22;2995;-31.998;115.906;2024-03-08T00:36:25;28.40;99.90
5940;DHT22;2995;-31.998;115.906;2024-03-08T00:38:58;28.40;99.90
5940;DHT22;2995;-31.998;115.906;2024-03-08T00:41:30;28.40;99.90
5940;DHT22;2995;-31.998;115.906;2024-03-08T00:44:01;28.20;99.90
5940;DHT22;2995;-31.998;115.906;2024-03-08T00:46:33;28.10;99.90
5940;DHT22;2995;-31.998;115.906;2024-03-08T00:49:07;28.00;99.90
5940;DHT22;2995;-31.998;115.906;2024-03-08T00:51:38;28.20;99.90
5940;DHT22;2995;-31.998;115.906;2024-03-08T00:54:09;28.40;99.90
5940;DHT22;2995;-31.998;115.906;2024-03-08T00:56:41;28.40;99.90
5940;DHT22;2995;-31.998;115.906;2024-03-08T00:59:12;28.30;99.90
5940;DHT22;2995;-31.998;115.906;2024-03-08T01:01:45;28.20;99.90
5940;DHT22;2995;-31.998;115.906;2024-03-08T01:04:18;28.10;99.90
5940;DHT22;2995;-31.998;115.906;2024-03-08T01:06:49;27.90;99.90
5940;DHT22;2995;-31.998;115.906;2024-03-08T01:09:20;27.80;99.90
5940;DHT22;2995;-31.998;115.906;2024-03-08T01:11:52;27.90;99.90
5940;DHT22;2995;-31.998;115.906;2024-03-08T01:14:23;27.70;99.90
5940;DHT22;2995;-31.998;115.906;2024-03-08T01:16:56;27.70;99.90
5940;DHT22;2995;-31.998;115.906;2024-03-08T01:19:30;27.90;99.90
5940;DHT22;2995;-31.998;115.906;2024-03-08T01:22:01;28.10;99.90
5940;DHT22;2995;-31.998;115.906;2024-03-08T01:24:33;28.40;99.90
5940;DHT22;2995;-31.998;115.906;2024-03-08T01:27:04;28.80;99.90
5940;DHT22;2995;-31.998;115.906;2024-03-08T01:29:37;29.00;99.90
5940;DHT22;2995;-31.998;115.906;2024-03-08T01:32:08;29.10;99.90
5940;DHT22;2995;-31.998;115.906;2024-03-08T01:34:42;29.10;99.90
5940;DHT22;2995;-31.998;115.906;2024-03-08T01:37:14;29.20;99.90
5940;DHT22;2995;-31.998;115.906;2024-03-08T01:39:45;28.90;99.90
5940;DHT22;2995;-31.998;115.906;2024-03-08T01:42:16;28.80;99.90
5940;DHT22;2995;-31.998;115.906;2024-03-08T01:44:47;28.40;99.90
5940;DHT22;2995;-31.998;115.906;2024-03-08T01:47:19;28.20;99.90
5940;DHT22;2995;-31.998;115.906;2024-03-08T01:49:53;28.20;99.90
5940;DHT22;2995;-31.998;115.906;2024-03-08T01:52:26;28.10;99.90
5940;DHT22;2995;-31.998;115.906;2024-03-08T01:54:58;27.90;99.90
5940;DHT22;2995;-31.998;115.906;2024-03-08T01:57:32;27.90;99.90
5940;DHT22;2995;-31.998;115.906;2024-03-08T02:00:04;28.00;99.90
5940;DHT22;2995;-31.998;115.906;2024-03-08T02:02:39;28.00;99.90
5940;DHT22;2995;-31.998;115.906;2024-03-08T02:05:15;28.20;99.90
5940;DHT22;2995;-31.998;115.906;2024-03-08T02:07:47;28.10;99.90
5940;DHT22;2995;-31.998;115.906;2024-03-08T02:10:18;27.90;99.90
5940;DHT22;2995;-31.998;115.906;2024-03-08T02:12:50;27.90;99.90
5940;DHT22;2995;-31.998;115.906;2024-03-08T02:15:21;27.80;99.90
5940;DHT22;2995;-31.998;115.906;2024-03-08T02:17:54;27.70;99.90
5940;DHT22;2995;-31.998;115.906;2024-03-08T02:20:30;27.90;99.90
5940;DHT22;2995;-31.998;115.906;2024-03-08T02:23:01;28.00;99.90
5940;DHT22;2995;-31.998;115.906;2024-03-08T02:25:32;28.00;99.90
5940;DHT22;2995;-31.998;115.906;2024-03-08T02:28:04;28.10;99.90
5940;DHT22;2995;-31.998;115.906;2024-03-08T02:30:36;28.00;99.90
5940;DHT22;2995;-31.998;115.906;2024-03-08T02:33:07;27.80;99.90
5940;DHT22;2995;-31.998;115.906;2024-03-08T02:35:42;27.80;99.90
5940;DHT22;2995;-31.998;115.906;2024-03-08T02:38:14;27.90;99.90
5940;DHT22;2995;-31.998;115.906;2024-03-08T02:40:47;28.00;99.90
5940;DHT22;2995;-31.998;115.906;2024-03-08T02:43:19;28.10;99.90
5940;DHT22;2995;-31.998;115.906;2024-03-08T02:45:50;28.30;99.90
5940;DHT22;2995;-31.998;115.906;2024-03-08T02:48:23;28.40;99.90
5940;DHT22;2995;-31.998;115.906;2024-03-08T02:50:56;28.50;99.90
5940;DHT22;2995;-31.998;115.906;2024-03-08T02:53:27;29.00;99.90
5940;DHT22;2995;-31.998;115.906;2024-03-08T02:55:58;29.00;99.90
5940;DHT22;2995;-31.998;115.906;2024-03-08T02:58:30;29.20;99.90
5940;DHT22;2995;-31.998;115.906;2024-03-08T03:01:01;29.30;99.90
5940;DHT22;2995;-31.998;115.906;2024-03-08T03:03:32;29.40;99.90
5940;DHT22;2995;-31.998;115.906;2024-03-08T03:06:06;29.30;99.90
5940;DHT22;2995;-31.998;115.906;2024-03-08T03:08:38;29.40;99.90
5940;DHT22;2995;-31.998;115.906;2024-03-08T03:11:12;29.50;99.90
5940;DHT22;2995;-31.998;115.906;2024-03-08T03:13:43;29.50;99.90
5940;DHT22;2995;-31.998;115.906;2024-03-08T03:16:18;29.50;99.90
5940;DHT22;2995;-31.998;115.906;2024-03-08T03:18:50;29.60;99.90
5940;DHT22;2995;-31.998;115.906;2024-03-08T03:21:23;29.50;99.90
5940;DHT22;2995;-31.998;115.906;2024-03-08T03:23:54;29.60;99.90
5940;DHT22;2995;-31.998;115.906;2024-03-08T03:26:27;29.70;99.90
5940;DHT22;2995;-31.998;115.906;2024-03-08T03:28:59;29.80;99.90
5940;DHT22;2995;-31.998;115.906;2024-03-08T03:31:31;29.40;99.90
5940;DHT22;2995;-31.998;115.906;2024-03-08T03:34:02;29.30;99.90
5940;DHT22;2995;-31.998;115.906;2024-03-08T03:36:38;29.50;99.90
5940;DHT22;2995;-31.998;115.906;2024-03-08T03:39:13;29.80;99.90
5940;DHT22;2995;-31.998;115.906;2024-03-08T03:41:48;29.90;99.90
5940;DHT22;2995;-31.998;115.906;2024-03-08T03:44:20;29.90;99.90
5940;DHT22;2995;-31.998;115.906;2024-03-08T03:46:51;29.80;99.90
5940;DHT22;2995;-31.998;115.906;2024-03-08T03:49:23;29.60;99.90
5940;DHT22;2995;-31.998;115.906;2024-03-08T03:51:56;29.70;99.90
5940;DHT22;2995;-31.998;115.906;2024-03-08T03:54:28;29.70;99.90
5940;DHT22;2995;-31.998;115.906;2024-03-08T03:57:01;29.80;99.90
5940;DHT22;2995;-31.998;115.906;2024-03-08T03:59:32;29.60;99.90
5940;DHT22;2995;-31.998;115.906;2024-03-08T04:02:04;29.50;99.90
5940;DHT22;2995;-31.998;115.906;2024-03-08T04:04:35;29.70;99.90
5940;DHT22;2995;-31.998;115.906;2024-03-08T04:07:08;29.70;99.90
5940;DHT22;2995;-31.998;115.906;2024-03-08T04:09:40;29.70;99.90
5940;DHT22;2995;-31.998;115.906;2024-03-08T04:12:11;29.60;99.90
5940;DHT22;2995;-31.998;115.906;2024-03-08T04:14:43;29.50;99.90
5940;DHT22;2995;-31.998;115.906;2024-03-08T04:17:15;29.50;99.90
5940;DHT22;2995;-31.998;115.906;2024-03-08T04:19:46;29.40;99.90
5940;DHT22;2995;-31.998;115.906;2024-03-08T04:22:20;29.30;99.90
5940;DHT22;2995;-31.998;115.906;2024-03-08T04:24:51;29.10;99.90
5940;DHT22;2995;-31.998;115.906;2024-03-08T04:27:22;29.10;99.90
5940;DHT22;2995;-31.998;115.906;2024-03-08T04:29:53;29.00;99.90
5940;DHT22;2995;-31.998;115.906;2024-03-08T04:32:25;29.00;99.90
5940;DHT22;2995;-31.998;115.906;2024-03-08T04:34:57;29.00;99.90
5940;DHT22;2995;-31.998;115.906;2024-03-08T04:37:31;29.00;99.90
5940;DHT22;2995;-31.998;115.906;2024-03-08T04:40:02;29.30;99.90
5940;DHT22;2995;-31.998;115.906;2024-03-08T04:42:34;29.70;99.90
5940;DHT22;2995;-31.998;115.906;2024-03-08T04:45:06;29.50;99.90
5940;DHT22;2995;-31.998;115.906;2024-03-08T04:47:39;29.80;99.90
5940;DHT22;2995;-31.998;115.906;2024-03-08T04:50:10;30.00;99.90
5940;DHT22;2995;-31.998;115.906;2024-03-08T04:52:44;30.00;99.90
5940;DHT22;2995;-31.998;115.906;2024-03-08T04:55:15;29.50;99.90
5940;DHT22;2995;-31.998;115.906;2024-03-08T04:57:49;29.60;99.90
5940;DHT22;2995;-31.998;115.906;2024-03-08T05:00:21;29.80;99.90
5940;DHT22;2995;-31.998;115.906;2024-03-08T05:02:53;30.00;99.90
5940;DHT22;2995;-31.998;115.906;2024-03-08T05:05:24;30.10;99.90
5940;DHT22;2995;-31.998;115.906;2024-03-08T05:07:59;29.50;99.90
5940;DHT22;2995;-31.998;115.906;2024-03-08T05:10:30;29.50;99.90
5940;DHT22;2995;-31.998;115.906;2024-03-08T05:13:01;29.50;99.90
5940;DHT22;2995;-31.998;115.906;2024-03-08T05:15:33;29.60;99.90
5940;DHT22;2995;-31.998;115.906;2024-03-08T05:18:04;29.50;99.90
5940;DHT22;2995;-31.998;115.906;2024-03-08T05:20:36;29.50;99.90
5940;DHT22;2995;-31.998;115.906;2024-03-08T05:23:10;29.70;99.90
5940;DHT22;2995;-31.998;115.906;2024-03-08T05:25:41;29.70;99.90
5940;DHT22;2995;-31.998;115.906;2024-03-08T05:28:12;29.50;99.90
5940;DHT22;2995;-31.998;115.906;2024-03-08T05:30:43;29.60;99.90
5940;DHT22;2995;-31.998;115.906;2024-03-08T05:33:15;29.60;99.90
5940;DHT22;2995;-31.998;115.906;2024-03-08T05:35:47;29.60;99.90
5940;DHT22;2995;-31.998;115.906;2024-03-08T05:38:20;29.60;99.90
5940;DHT22;2995;-31.998;115.906;2024-03-08T05:40:52;29.40;99.90
5940;DHT22;2995;-31.998;115.906;2024-03-08T05:43:23;29.20;99.90
5940;DHT22;2995;-31.998;115.906;2024-03-08T05:45:54;29.10;99.90
5940;DHT22;2995;-31.998;115.906;2024-03-08T05:48:26;29.30;99.90
5940;DHT22;2995;-31.998;115.906;2024-03-08T05:50:57;29.40;99.90
5940;DHT22;2995;-31.998;115.906;2024-03-08T05:53:31;29.40;99.90
5940;DHT22;2995;-31.998;115.906;2024-03-08T05:56:03;29.50;99.90
5940;DHT22;2995;-31.998;115.906;2024-03-08T05:58:34;29.40;99.90
5940;DHT22;2995;-31.998;115.906;2024-03-08T06:01:05;29.60;99.90
5940;DHT22;2995;-31.998;115.906;2024-03-08T06:03:37;29.30;99.90
5940;DHT22;2995;-31.998;115.906;2024-03-08T06:06:13;29.10;99.90
5940;DHT22;2995;-31.998;115.906;2024-03-08T06:08:48;28.60;99.90
5940;DHT22;2995;-31.998;115.906;2024-03-08T06:11:19;28.60;99.90
5940;DHT22;2995;-31.998;115.906;2024-03-08T06:13:51;28.40;99.90
5940;DHT22;2995;-31.998;115.906;2024-03-08T06:16:27;28.40;99.90
5940;DHT22;2995;-31.998;115.906;2024-03-08T06:18:59;28.10;99.90
5940;DHT22;2995;-31.998;115.906;2024-03-08T06:21:30;28.40;99.90
5940;DHT22;2995;-31.998;115.906;2024-03-08T06:24:04;28.40;99.90
5940;DHT22;2995;-31.998;115.906;2024-03-08T06:26:35;28.40;99.90
5940;DHT22;2995;-31.998;115.906;2024-03-08T06:29:07;28.40;99.90
5940;DHT22;2995;-31.998;115.906;2024-03-08T06:31:38;28.60;99.90
5940;DHT22;2995;-31.998;115.906;2024-03-08T06:34:09;28.50;99.90
5940;DHT22;2995;-31.998;115.906;2024-03-08T06:36:41;27.60;99.90
5940;DHT22;2995;-31.998;115.906;2024-03-08T06:39:14;27.30;99.90
5940;DHT22;2995;-31.998;115.906;2024-03-08T06:41:46;27.30;99.90
5940;DHT22;2995;-31.998;115.906;2024-03-08T06:44:19;27.40;99.90
5940;DHT22;2995;-31.998;115.906;2024-03-08T06:46:51;27.60;99.90
5940;DHT22;2995;-31.998;115.906;2024-03-08T06:49:22;27.70;99.90
5940;DHT22;2995;-31.998;115.906;2024-03-08T06:51:54;27.30;99.90
5940;DHT22;2995;-31.998;115.906;2024-03-08T06:54:28;26.90;99.90
5940;DHT22;2995;-31.998;115.906;2024-03-08T06:56:59;26.80;99.90
5940;DHT22;2995;-31.998;115.906;2024-03-08T06:59:31;26.70;99.90
5940;DHT22;2995;-31.998;115.906;2024-03-08T07:02:04;26.30;99.90
5940;DHT22;2995;-31.998;115.906;2024-03-08T07:04:37;26.10;99.90
5940;DHT22;2995;-31.998;115.906;2024-03-08T07:07:08;26.20;99.90
5940;DHT22;2995;-31.998;115.906;2024-03-08T07:09:44;26.00;99.90
5940;DHT22;2995;-31.998;115.906;2024-03-08T07:12:17;25.70;99.90
5940;DHT22;2995;-31.998;115.906;2024-03-08T07:14:49;25.70;99.90
5940;DHT22;2995;-31.998;115.906;2024-03-08T07:17:20;25.80;99.90
5940;DHT22;2995;-31.998;115.906;2024-03-08T07:19:52;25.50;99.90
5940;DHT22;2995;-31.998;115.906;2024-03-08T07:22:25;25.30;99.90
5940;DHT22;2995;-31.998;115.906;2024-03-08T07:24:58;25.70;99.90
5940;DHT22;2995;-31.998;115.906;2024-03-08T07:27:48;26.00;99.90
5940;DHT22;2995;-31.998;115.906;2024-03-08T07:30:20;26.30;99.90
5940;DHT22;2995;-31.998;115.906;2024-03-08T07:33:07;26.40;99.90
5940;DHT22;2995;-31.998;115.906;2024-03-08T07:35:40;26.80;99.90
5940;DHT22;2995;-31.998;115.906;2024-03-08T07:38:12;27.00;99.90
5940;DHT22;2995;-31.998;115.906;2024-03-08T07:40:46;27.10;99.90
5940;DHT22;2995;-31.998;115.906;2024-03-08T07:43:17;27.20;99.90
5940;DHT22;2995;-31.998;115.906;2024-03-08T07:45:50;27.10;99.90
5940;DHT22;2995;-31.998;115.906;2024-03-08T07:48:23;27.20;99.90
5940;DHT22;2995;-31.998;115.906;2024-03-08T07:50:55;26.80;99.90
5940;DHT22;2995;-31.998;115.906;2024-03-08T07:53:26;26.80;99.90
5940;DHT22;2995;-31.998;115.906;2024-03-08T07:55:59;26.70;99.90
5940;DHT22;2995;-31.998;115.906;2024-03-08T07:58:31;26.70;99.90
5940;DHT22;2995;-31.998;115.906;2024-03-08T08:01:02;26.30;99.90
5940;DHT22;2995;-31.998;115.906;2024-03-08T08:03:33;26.00;99.90
5940;DHT22;2995;-31.998;115.906;2024-03-08T08:06:06;25.80;99.90
5940;DHT22;2995;-31.998;115.906;2024-03-08T08:08:38;25.70;99.90
5940;DHT22;2995;-31.998;115.906;2024-03-08T08:11:11;25.80;99.90
5940;DHT22;2995;-31.998;115.906;2024-03-08T08:13:43;25.90;99.90
5940;DHT22;2995;-31.998;115.906;2024-03-08T08:16:14;25.70;99.90
5940;DHT22;2995;-31.998;115.906;2024-03-08T08:18:46;25.70;99.90
5940;DHT22;2995;-31.998;115.906;2024-03-08T08:21:17;25.60;99.90
5940;DHT22;2995;-31.998;115.906;2024-03-08T08:23:50;25.50;99.90
5940;DHT22;2995;-31.998;115.906;2024-03-08T08:26:23;25.40;99.90
5940;DHT22;2995;-31.998;115.906;2024-03-08T08:28:55;25.00;99.90
5940;DHT22;2995;-31.998;115.906;2024-03-08T08:31:26;25.00;99.90
5940;DHT22;2995;-31.998;115.906;2024-03-08T08:33:58;24.70;99.90
5940;DHT22;2995;-31.998;115.906;2024-03-08T08:36:31;24.80;99.90
5940;DHT22;2995;-31.998;115.906;2024-03-08T08:39:02;24.80;99.90
5940;DHT22;2995;-31.998;115.906;2024-03-08T08:41:42;24.80;99.90
5940;DHT22;2995;-31.998;115.906;2024-03-08T08:44:13;24.70;99.90
5940;DHT22;2995;-31.998;115.906;2024-03-08T08:46:44;24.60;99.90
5940;DHT22;2995;-31.998;115.906;2024-03-08T08:49:16;24.60;99.90
5940;DHT22;2995;-31.998;115.906;2024-03-08T08:51:50;24.70;99.90
5940;DHT22;2995;-31.998;115.906;2024-03-08T08:54:22;24.60;99.90
5940;DHT22;2995;-31.998;115.906;2024-03-08T08:56:55;24.50;99.90
5940;DHT22;2995;-31.998;115.906;2024-03-08T08:59:26;24.40;99.90
5940;DHT22;2995;-31.998;115.906;2024-03-08T09:01:58;24.30;99.90
5940;DHT22;2995;-31.998;115.906;2024-03-08T09:04:29;24.40;99.90
5940;DHT22;2995;-31.998;115.906;2024-03-08T09:07:01;24.30;99.90
5940;DHT22;2995;-31.998;115.906;2024-03-08T09:09:34;24.10;99.90
5940;DHT22;2995;-31.998;115.906;2024-03-08T09:12:08;24.10;99.90
5940;DHT22;2995;-31.998;115.906;2024-03-08T09:14:41;24.00;99.90
5940;DHT22;2995;-31.998;115.906;2024-03-08T09:17:12;24.00;99.90
5940;DHT22;2995;-31.998;115.906;2024-03-08T09:19:45;24.00;99.90
5940;DHT22;2995;-31.998;115.906;2024-03-08T09:22:17;24.00;99.90
5940;DHT22;2995;-31.998;115.906;2024-03-08T09:24:48;23.80;99.90
5940;DHT22;2995;-31.998;115.906;2024-03-08T09:27:21;23.90;99.90
5940;DHT22;2995;-31.998;115.906;2024-03-08T09:29:52;23.80;99.90
5940;DHT22;2995;-31.998;115.906;2024-03-08T09:32:23;23.80;99.90
5940;DHT22;2995;-31.998;115.906;2024-03-08T09:34:55;23.50;99.90
5940;DHT22;2995;-31.998;115.906;2024-03-08T09:37:26;23.50;99.90
5940;DHT22;2995;-31.998;115.906;2024-03-08T09:39:57;23.50;99.90
5940;DHT22;2995;-31.998;115.906;2024-03-08T09:42:34;23.40;99.90
5940;DHT22;2995;-31.998;115.906;2024-03-08T09:45:09;23.30;99.90
5940;DHT22;2995;-31.998;115.906;2024-03-08T09:47:44;23.30;99.90
5940;DHT22;2995;-31.998;115.906;2024-03-08T09:50:16;23.40;99.90
5940;DHT22;2995;-31.998;115.906;2024-03-08T09:52:49;23.30;99.90
5940;DHT22;2995;-31.998;115.906;2024-03-08T09:55:21;23.30;99.90
5940;DHT22;2995;-31.998;115.906;2024-03-08T09:57:55;23.30;99.90
5940;DHT22;2995;-31.998;115.906;2024-03-08T10:00:43;23.20;99.90
5940;DHT22;2995;-31.998;115.906;2024-03-08T10:03:14;23.30;99.90
5940;DHT22;2995;-31.998;115.906;2024-03-08T10:05:46;23.30;99.90
5940;DHT22;2995;-31.998;115.906;2024-03-08T10:08:17;23.30;99.90
5940;DHT22;2995;-31.998;115.906;2024-03-08T10:10:48;23.20;99.90
5940;DHT22;2995;-31.998;115.906;2024-03-08T10:13:24;23.20;99.90
5940;DHT22;2995;-31.998;115.906;2024-03-08T10:15:55;23.10;99.90
5940;DHT22;2995;-31.998;115.906;2024-03-08T10:18:28;23.10;99.90
5940;DHT22;2995;-31.998;115.906;2024-03-08T10:21:06;22.90;99.90
5940;DHT22;2995;-31.998;115.906;2024-03-08T10:23:39;22.90;99.90
5940;DHT22;2995;-31.998;115.906;2024-03-08T10:26:14;23.10;99.90
5940;DHT22;2995;-31.998;115.906;2024-03-08T10:28:49;22.90;99.90
5940;DHT22;2995;-31.998;115.906;2024-03-08T10:31:21;22.70;99.90
5940;DHT22;2995;-31.998;115.906;2024-03-08T10:33:52;22.60;99.90
5940;DHT22;2995;-31.998;115.906;2024-03-08T10:36:23;22.70;99.90
5940;DHT22;2995;-31.998;115.906;2024-03-08T10:38:54;22.60;99.90
5940;DHT22;2995;-31.998;115.906;2024-03-08T10:41:31;22.50;99.90
5940;DHT22;2995;-31.998;115.906;2024-03-08T10:44:21;22.50;99.90
5940;DHT22;2995;-31.998;115.906;2024-03-08T10:47:01;22.30;99.90
5940;DHT22;2995;-31.998;115.906;2024-03-08T10:49:37;22.30;99.90
5940;DHT22;2995;-31.998;115.906;2024-03-08T10:52:11;22.20;99.90
5940;DHT22;2995;-31.998;115.906;2024-03-08T10:54:43;22.30;99.90
5940;DHT22;2995;-31.998;115.906;2024-03-08T10:57:18;22.20;99.90
5940;DHT22;2995;-31.998;115.906;2024-03-08T10:59:54;22.00;99.90
5940;DHT22;2995;-31.998;115.906;2024-03-08T11:02:27;22.00;99.90
5940;DHT22;2995;-31.998;115.906;2024-03-08T11:04:58;21.90;99.90
5940;DHT22;2995;-31.998;115.906;2024-03-08T11:07:30;21.90;99.90
5940;DHT22;2995;-31.998;115.906;2024-03-08T11:10:04;21.70;99.90
5940;DHT22;2995;-31.998;115.906;2024-03-08T11:12:38;21.80;99.90
5940;DHT22;2995;-31.998;115.906;2024-03-08T11:15:14;21.90;99.90
5940;DHT22;2995;-31.998;115.906;2024-03-08T11:17:50;21.90;99.90
5940;DHT22;2995;-31.998;115.906;2024-03-08T11:20:25;21.90;99.90
5940;DHT22;2995;-31.998;115.906;2024-03-08T11:22:59;21.90;99.90
5940;DHT22;2995;-31.998;115.906;2024-03-08T11:25:35;21.90;99.90
5940;DHT22;2995;-31.998;115.906;2024-03-08T11:28:16;21.90;99.90
5940;DHT22;2995;-31.998;115.906;2024-03-08T11:31:22;22.00;99.90
5940;DHT22;2995;-31.998;115.906;2024-03-08T11:33:55;22.00;99.90
5940;DHT22;2995;-31.998;115.906;2024-03-08T11:36:27;22.00;99.90
5940;DHT22;2995;-31.998;115.906;2024-03-08T11:39:00;21.90;99.90
5940;DHT22;2995;-31.998;115.906;2024-03-08T11:41:37;21.70;99.90
5940;DHT22;2995;-31.998;115.906;2024-03-08T11:44:11;21.70;99.90
5940;DHT22;2995;-31.998;115.906;2024-03-08T11:46:46;21.50;99.90
5940;DHT22;2995;-31.998;115.906;2024-03-08T11:49:17;21.50;99.90
5940;DHT22;2995;-31.998;115.906;2024-03-08T11:51:50;21.60;99.90
5940;DHT22;2995;-31.998;115.906;2024-03-08T11:54:21;21.60;99.90
5940;DHT22;2995;-31.998;115.906;2024-03-08T11:56:54;21.70;99.90
5940;DHT22;2995;-31.998;115.906;2024-03-08T11:59:29;21.70;99.90
5940;DHT22;2995;-31.998;115.906;2024-03-08T12:02:04;21.80;99.90
5940;DHT22;2995;-31.998;115.906;2024-03-08T12:04:38;21.80;99.90
5940;DHT22;2995;-31.998;115.906;2024-03-08T12:07:11;21.80;99.90
5940;DHT22;2995;-31.998;115.906;2024-03-08T12:10:17;22.00;99.90
5940;DHT22;2995;-31.998;115.906;2024-03-08T12:12:49;21.80;99.90
5940;DHT22;2995;-31.998;115.906;2024-03-08T12:15:22;21.70;99.90
5940;DHT22;2995;-31.998;115.906;2024-03-08T12:17:56;21.50;99.90
5940;DHT22;2995;-31.998;115.906;2024-03-08T12:20:29;21.40;99.90
5940;DHT22;2995;-31.998;115.906;2024-03-08T12:23:00;21.30;99.90
5940;DHT22;2995;-31.998;115.906;2024-03-08T12:25:33;21.30;99.90
5940;DHT22;2995;-31.998;115.906;2024-03-08T12:28:12;21.20;99.90
5940;DHT22;2995;-31.998;115.906;2024-03-08T12:30:49;21.10;99.90
5940;DHT22;2995;-31.998;115.906;2024-03-08T12:33:24;21.10;99.90
5940;DHT22;2995;-31.998;115.906;2024-03-08T12:35:55;21.10;99.90
5940;DHT22;2995;-31.998;115.906;2024-03-08T12:38:29;21.10;99.90
5940;DHT22;2995;-31.998;115.906;2024-03-08T12:41:00;21.00;99.90
5940;DHT22;2995;-31.998;115.906;2024-03-08T12:43:32;21.00;99.90
5940;DHT22;2995;-31.998;115.906;2024-03-08T12:46:04;21.00;99.90
5940;DHT22;2995;-31.998;115.906;2024-03-08T12:48:39;20.90;99.90
5940;DHT22;2995;-31.998;115.906;2024-03-08T12:51:15;21.00;99.90
5940;DHT22;2995;-31.998;115.906;2024-03-08T12:53:46;20.90;99.90
5940;DHT22;2995;-31.998;115.906;2024-03-08T12:56:30;20.80;99.90
5940;DHT22;2995;-31.998;115.906;2024-03-08T12:59:02;20.80;99.90
5940;DHT22;2995;-31.998;115.906;2024-03-08T13:01:33;20.80;99.90
5940;DHT22;2995;-31.998;115.906;2024-03-08T13:04:07;20.70;99.90
5940;DHT22;2995;-31.998;115.906;2024-03-08T13:06:39;20.80;99.90
5940;DHT22;2995;-31.998;115.906;2024-03-08T13:09:10;20.70;99.90
5940;DHT22;2995;-31.998;115.906;2024-03-08T13:11:42;20.60;99.90
5940;DHT22;2995;-31.998;115.906;2024-03-08T13:14:13;20.60;99.90
5940;DHT22;2995;-31.998;115.906;2024-03-08T13:16:45;20.70;99.90
5940;DHT22;2995;-31.998;115.906;2024-03-08T13:19:18;20.70;99.90
5940;DHT22;2995;-31.998;115.906;2024-03-08T13:21:51;20.70;99.90
5940;DHT22;2995;-31.998;115.906;2024-03-08T13:24:22;20.60;99.90
5940;DHT22;2995;-31.998;115.906;2024-03-08T13:26:53;20.60;99.90
5940;DHT22;2995;-31.998;115.906;2024-03-08T13:29:24;20.60;99.90
5940;DHT22;2995;-31.998;115.906;2024-03-08T13:31:55;20.40;99.90
5940;DHT22;2995;-31.998;115.906;2024-03-08T13:34:31;20.40;99.90
5940;DHT22;2995;-31.998;115.906;2024-03-08T13:37:03;20.40;99.90
5940;DHT22;2995;-31.998;115.906;2024-03-08T13:39:34;20.40;99.90
5940;DHT22;2995;-31.998;115.906;2024-03-08T13:42:08;20.30;99.90
5940;DHT22;2995;-31.998;115.906;2024-03-08T13:44:44;20.30;99.90
5940;DHT22;2995;-31.998;115.906;2024-03-08T13:47:16;20.30;99.90
5940;DHT22;2995;-31.998;115.906;2024-03-08T13:49:49;20.30;99.90
5940;DHT22;2995;-31.998;115.906;2024-03-08T13:52:21;20.40;99.90
5940;DHT22;2995;-31.998;115.906;2024-03-08T13:54:53;20.40;99.90
5940;DHT22;2995;-31.998;115.906;2024-03-08T13:57:24;20.30;99.90
5940;DHT22;2995;-31.998;115.906;2024-03-08T13:59:55;20.20;99.90
5940;DHT22;2995;-31.998;115.906;2024-03-08T14:02:26;20.20;99.90
5940;DHT22;2995;-31.998;115.906;2024-03-08T14:05:00;20.20;99.90
5940;DHT22;2995;-31.998;115.906;2024-03-08T14:07:32;20.10;99.90
5940;DHT22;2995;-31.998;115.906;2024-03-08T14:10:03;20.10;99.90
5940;DHT22;2995;-31.998;115.906;2024-03-08T14:12:35;20.10;99.90
5940;DHT22;2995;-31.998;115.906;2024-03-08T14:15:06;20.00;99.90
5940;DHT22;2995;-31.998;115.906;2024-03-08T14:17:39;19.90;99.90
5940;DHT22;2995;-31.998;115.906;2024-03-08T14:20:13;19.90;99.90
5940;DHT22;2995;-31.998;115.906;2024-03-08T14:22:45;19.80;99.90
5940;DHT22;2995;-31.998;115.906;2024-03-08T14:25:19;19.80;99.90
5940;DHT22;2995;-31.998;115.906;2024-03-08T14:27:52;19.80;99.90
5940;DHT22;2995;-31.998;115.906;2024-03-08T14:30:26;19.70;99.90
5940;DHT22;2995;-31.998;115.906;2024-03-08T14:33:03;19.70;99.90
5940;DHT22;2995;-31.998;115.906;2024-03-08T14:35:40;19.80;99.90
5940;DHT22;2995;-31.998;115.906;2024-03-08T14:38:12;19.70;99.90
5940;DHT22;2995;-31.998;115.906;2024-03-08T14:40:45;19.80;99.90
5940;DHT22;2995;-31.998;115.906;2024-03-08T14:43:16;19.70;99.90
5940;DHT22;2995;-31.998;115.906;2024-03-08T14:45:48;19.70;99.90
5940;DHT22;2995;-31.998;115.906;2024-03-08T14:48:19;19.70;99.90
5940;DHT22;2995;-31.998;115.906;2024-03-08T14:50:52;19.60;99.90
5940;DHT22;2995;-31.998;115.906;2024-03-08T14:53:24;19.60;99.90
5940;DHT22;2995;-31.998;115.906;2024-03-08T14:55:55;19.50;99.90
5940;DHT22;2995;-31.998;115.906;2024-03-08T14:58:27;19.40;99.90
5940;DHT22;2995;-31.998;115.906;2024-03-08T15:00:58;19.40;99.90
5940;DHT22;2995;-31.998;115.906;2024-03-08T15:03:29;19.30;99.90
5940;DHT22;2995;-31.998;115.906;2024-03-08T15:06:03;19.30;99.90
5940;DHT22;2995;-31.998;115.906;2024-03-08T15:08:36;19.30;99.90
5940;DHT22;2995;-31.998;115.906;2024-03-08T15:11:08;19.30;99.90
5940;DHT22;2995;-31.998;115.906;2024-03-08T15:13:39;19.20;99.90
5940;DHT22;2995;-31.998;115.906;2024-03-08T15:16:13;19.20;99.90
5940;DHT22;2995;-31.998;115.906;2024-03-08T15:18:46;19.20;99.90
5940;DHT22;2995;-31.998;115.906;2024-03-08T15:21:21;19.10;99.90
5940;DHT22;2995;-31.998;115.906;2024-03-08T15:23:53;19.10;99.90
5940;DHT22;2995;-31.998;115.906;2024-03-08T15:26:25;19.00;99.90
5940;DHT22;2995;-31.998;115.906;2024-03-08T15:28:58;18.90;99.90
5940;DHT22;2995;-31.998;115.906;2024-03-08T15:31:29;18.90;99.90
5940;DHT22;2995;-31.998;115.906;2024-03-08T15:34:02;18.90;99.90
5940;DHT22;2995;-31.998;115.906;2024-03-08T15:36:37;18.90;99.90
5940;DHT22;2995;-31.998;115.906;2024-03-08T15:39:11;18.90;99.90
5940;DHT22;2995;-31.998;115.906;2024-03-08T15:41:42;18.80;99.90
5940;DHT22;2995;-31.998;115.906;2024-03-08T15:44:14;18.60;99.90
5940;DHT22;2995;-31.998;115.906;2024-03-08T15:46:45;18.60;99.90
5940;DHT22;2995;-31.998;115.906;2024-03-08T15:49:17;18.60;99.90